Terminal Aerodrome Forecast
Issued by NWS

Home | Current Version | Previous Version | Text Only | Print | Product List | Glossary On
Versions: 1 2 3 4 5 6 7 8 9 10 11 12 13 14 15 16 17 18
677
FTUS46 KMFR 081514 AAA
TAFLMT
TAF AMD
KLMT 081514Z 0815/0912 32008KT 5SM -FZRASNPL BR OVC015
     FM081800 14014G20KT P6SM -SHRA BKN010 OVC025
     FM082100 21012G18KT P6SM BKN020 OVC030=

USA.gov is the U.S. government's official web portal to all federal, state and local government web resources and services.